Strona główna
METAR-TAF:

METAR-TAF

Lotnisko :

Kunming, Chiny

Szerokość geograficzna: 25-01N, Długość geograficzna: 102-41E, wysokość: 1892 m

Aktualna obserwacja pogody

Raport powstał 25 minut temu, godzina 18:00 UTC
Wiatr 8 kt od południowy zachód
Temperatura 11°C
Wilgotność 87%
Ciśnienie 1025 hPa
Widzialność 10 km lub więcej
Brak chmur poniżej 1500 m i brak chmur cumulonimbus

METAR: ZPPP 191800Z 22004MPS CAVOK 11/09 Q1025 NOSIG

czas: 02:25 (18:25 UTC)

Prognoza

Raport powstał 5 godziny i 22 minut temu, godzina 13:03 UTC
Prognoza ważna od 19 godzina 18 UTC do 20 godzina 18 UTC
Wiatr 10 kt od południowy zachód
Widzialność 10 km lub więcej
Rozproszone chmury na wysokości 2600 ft

TAF: ZPPP 191303Z 1918/2018 22005MPS 9999 SCT026 TX21/2008Z TN11/1923Z

Obserwacja i prognoza pogody dla ponad 4000 lotnisk (raport METAR i TAF).

Dostępne stacje oznaczono żółtymi i czerwonymi punktami na mapie.

Najedź kursorem aby zobaczyć nazwę stacji.

Kliknij aby zobaczyć obserwacje i prognozy pogody.

Aby zmienić mapę: kliknij na zielony przycisk z czarnym krzyżykiem, aby powiększyć; na zielony przycisk z myślnikiem, aby pomniejszyć; na zielone strzałki, aby przejść do map sąsiednich.


METAR-TAF: